NWS Home NWS Lubbock West Texas Mesonet                      Daily Summary For 04/08/2021

Latest   N   C   S   Daily Sum   3hrΔ   24hrΔ   Soil Data 
Site Map   24hr Precip   72hr Precip   Google Plot


Station Time of Last Max Temp Min Temp Max/Min Dew Pt. Max/Min RH 10m Avg Wind 2m Avg Wind Peak Gust @ 33ft (mph) Potential Evapotranspiration
mm/day or in/day
Rain Sum Solar Rad
MJ/m^2
% Clear Day Red Flag
Abernathy 5ENE 11:59 PM 79 36 57 /28 68 / 47 7.4  (E) 4.7 20.8 mph 132° @ 1002 PM 2.8 or 0.11 0.00 26.5 195.4 0
Adrian 6WSW 11:59 PM 79 36 57 /28 68 / 47 9  (E) 6.3 23.5 mph 207° @ 1227 PM 2.8 or 0.11 0.00 27.9 214.5 0
Aiken 3WSW 11:59 PM 79 36 57 /28 68 / 47 7.6  (E) 4.8 22 mph 157° @ 1139 PM 2.5 or 0.1 0.00 27.6 205.3 0
Amarillo 15NNW 11:59 PM 79 36 57 /28 68 / 47 8.8  (E) 6 25.6 mph 250° @ 0504 PM 3 or 0.12 0.00 26.6 207.5 0
Amarillo 7SSE 11:59 PM 79 36 57 /28 68 / 47 8.5  (S) 6.1 23.8 mph 236° @ 0552 PM 2.8 or 0.11 0.00 26.2 201.5 0
Amarillo 9NNE 11:59 PM 79 36 57 /28 68 / 47 7.4  (S) 5.7 26.2 mph 136° @ 1126 PM 2.5 or 0.1 0.00 26 201.6 0
Amherst 1NE 11:55 PM 79 36 57 /28 68 / 47 7.9  (E) 5.7 27.6 mph 250° @ 0345 PM 2.8 or 0.11 0.00 5.2 191.6 0
Andrews 2E 11:59 PM 79 36 57 /28 68 / 47 8.3  (SW) 4.7 34 mph 256° @ 0315 PM 3.3 or 0.13 0.00 27.9 195 0
Anton 6SSW 11:55 PM 79 36 57 /28 68 / 47 8.2  (SE) 5.8 23 mph 259° @ 0620 PM 3.3 or 0.13 0.00 26.7 195.6 0
Aspermont 3NE 11:59 PM 79 36 57 /28 68 / 47 4.9  (E) 1.8 20.8 mph 104° @ 1104 AM 2.3 or 0.09 0.00 27.7 201.6 0
Big Bend NP - Castolon 11:59 PM 79 36 57 /28 68 / 47 5.6  (W) 4.4 27.1 mph 308° @ 0216 PM 3 or 0.12 0.00 26.8 171 1
Big Bend NP - Persimmon Gap 11:59 PM 79 36 57 /28 68 / 47 7.7  (S) 5.8 34.2 mph 239° @ 0237 PM 3.8 or 0.15 0.00 25.4 164.2 23
Big Lake 1WNW 11:59 PM 79 36 57 /28 68 / 47 8  (SE) 5.5 22.8 mph 193° @ 0943 AM 3.6 or 0.14 0.00 27.7 187.9 0
Bootleg 11WNW 11:59 PM 79 36 57 /28 68 / 47 7.8  (E) 5.6 23.3 mph 217° @ 0312 PM 2.5 or 0.1 0.00 23.2 175.3 0
Borger 7E 11:59 PM 79 36 57 /28 68 / 47 11  (NE) 8.3 28.5 mph 247° @ 1205 PM 3.3 or 0.13 0.00 28.4 223.9 0
Boys Ranch 1WSW 11:59 PM 79 36 57 /28 68 / 47 6.1  (E) 4.9 24.2 mph 222° @ 0552 PM 2 or 0.08 0.00 27.8 217.9 0
Brownfield 2S 11:59 PM 79 36 57 /28 68 / 47 8.1  (SE) 5.3 40.6 mph 277° @ 0436 PM 3.3 or 0.13 0.00 27.6 198 4
Canadian 6E 11:59 PM 79 36 57 /28 68 / 47 8.6  (NW) 6.1 28.3 mph 231° @ 0212 PM 2.8 or 0.11 0.00 27 215.9 1
Caprock Canyons State Park 11:59 PM 79 36 57 /28 68 / 47 7.4  (NW) 5.3 27.1 mph 228° @ 1147 PM 2.5 or 0.1 0.00 27 203.9 0
Childress 2NNE 11:55 PM 79 36 57 /28 68 / 47 8.1  (N) 5.2 19.1 mph 180° @ 0100 PM 2.8 or 0.11 0.00 26.1 198.2 0
Clarendon 2WSW 11:55 PM 79 36 57 /28 68 / 47 8.3  (N) 5.6 30 mph 221° @ 0120 PM 2.8 or 0.11 0.00 27.2 209 0
Claude 12SW 11:59 PM 79 36 57 /28 68 / 47 6.1  (NE) 4.1 23.4 mph 214° @ 0547 PM 2 or 0.08 0.00 27.3 208.8 0
Clyde 2WNW 11:59 PM 79 36 57 /28 68 / 47 8.2  (E) 5.5 20.1 mph 205° @ 1251 PM 3.6 or 0.14 0.00 25.2 178.5 0
Colorado City 5NW 11:59 PM 79 36 57 /28 68 / 47 6.9  (E) 4.3 18 mph 295° @ 0326 PM 3 or 0.12 0.00 26.5 187.5 0
Comanche Springs 11:59 PM 79 36 57 /28 68 / 47 4.3  (NW) 2.4 18.6 mph 148° @ 0344 PM 2 or 0.08 0.00 28 210.2 0
Coyanosa 2N 11:59 PM 79 36 57 /28 68 / 47 6.7  (SW) 4.1 21.9 mph 251° @ 0647 PM 3 or 0.12 0.00 27.1 183.9 0
Crane 1NNW 11:59 PM 79 36 57 /28 68 / 47 5.8  (SW) 4.3 21.1 mph 279° @ 0347 PM 2.5 or 0.1 0.00 27.7 189.5 0
Crowell 1E 11:59 PM 79 36 57 /28 68 / 47 5.7  (N) 4 18.3 mph 140° @ 0155 PM 2.3 or 0.09 0.00 27 202.4 0
Dell City 11:59 PM 79 36 57 /28 68 / 47 8.4  (W) 5.9 35.4 mph 269° @ 0527 PM 3.6 or 0.14 0.00 26.5 182.4 37
Denver City 7WNW 11:55 PM 79 36 57 /28 68 / 47 10  (W) 6.9 33.1 mph 268° @ 0250 PM 3.6 or 0.14 0.00 28 199.9 0
Dimmitt 2NE 11:55 PM 79 36 57 /28 68 / 47 8.8  (E) 6.2 43 mph 242° @ 1045 PM 2.8 or 0.11 0.00 26 195.7 15
Doole 3WNW 11:59 PM 79 36 57 /28 68 / 47 6.6  (SE) 5.2 28.9 mph 237° @ 0251 PM 3.8 or 0.15 0.00 26.5 182.3 2
Dora NM 2SW 11:55 PM 79 36 57 /28 68 / 47 10  (NW) 7.5 36.6 mph 282° @ 0550 PM 3.6 or 0.14 0.00 25.7 188.1 35
Dozier 3W 11:59 PM 79 36 57 /28 68 / 47 8.1  (W) 5.2 25.6 mph 230° @ 0327 PM 2.8 or 0.11 0.00 26.9 208.4 0
Earth 9WSW 11:59 PM 79 36 57 /28 68 / 47 8.5  (NE) 6.7 29.4 mph 229° @ 1154 PM 3 or 0.12 0.00 25.9 192.5 0
Endee NM 2SW 11:59 PM 79 36 57 /28 68 / 47 6  (SE) 4.1 21.6 mph 223° @ 0220 PM 2 or 0.08 0.00 24.9 190.7 0
Estelline 3SSE 11:59 PM 79 36 57 /28 68 / 47 6.8  (NE) 4.2 22 mph 130° @ 1026 PM 2.5 or 0.1 0.00 26.6 202.7 0
Floydada 2NNE 11:55 PM 79 36 57 /28 68 / 47 6.8  (NE) 4.4 19.7 mph 144° @ 1050 PM 2.5 or 0.1 0.00 25.8 191.2 0
Fluvanna 3WNW 11:55 PM 79 36 57 /28 68 / 47 6.9  (E) 4.6 16.4 mph 124° @ 1005 PM 2.8 or 0.11 0.00 25 179.2 0
Fort Chadbourne 11:59 PM 79 36 57 /28 68 / 47 5.2  (N) 3.7 24 mph 272° @ 0257 PM 2.8 or 0.11 0.00 25 175.1 0
Fort Lancaster 11:59 PM 79 36 57 /28 68 / 47 3.7  (SW) 2.5 23.7 mph 225° @ 0123 PM 2 or 0.08 0.00 26.8 179.7 0
Fort Lewis CO 11:59 PM 79 36 57 /28 68 / 47 10.9  (NW) 8.6 39.8 mph 287° @ 0540 PM 2.3 or 0.09 0.00 24.1 194.3 0
Fort McKavett 11:59 PM 79 36 57 /28 68 / 47 7.2  (SE) 3.9 32.3 mph 211° @ 1134 AM 3.8 or 0.15 0.00 26.7 179.5 0
Friona 2NE 11:55 PM 79 36 57 /28 68 / 47 8.5  (E) 6.1 33.9 mph 251° @ 0520 PM 2.8 or 0.11 0.00 26.9 202.6 5
Fritch 1WNW 11:59 PM 79 36 57 /28 68 / 47 8.4  (N) 6.5 27.8 mph 166° @ 1129 PM 2.8 or 0.11 0.00 24.2 190.7 0
Gail 2ESE 11:59 PM 79 36 57 /28 68 / 47 5.3  (NW) 3.2 18.6 mph 267° @ 0448 PM 2.3 or 0.09 0.00 26.8 191.4 0
Goodlett 3W 11:55 PM 79 36 57 /28 68 / 47 7.1  (N) 4.9 18 mph 181° @ 0420 PM 2.5 or 0.1 0.00 27.2 206.6 0
Goodnight 11:59 PM 79 36 57 /28 68 / 47 8.9  (NW) 6.2 21.3 mph 204° @ 0510 PM 2.8 or 0.11 0.00 25.7 197.4 0
Graham 5SSW 11:59 PM 79 36 57 /28 68 / 47 6.8  (SE) 4.8 28.5 mph 89° @ 0358 AM 2.5 or 0.1 0.00 27.6 198.7 0
Guadalupe Mtns Natl Park 11:59 PM 79 36 57 /28 68 / 47 11.6  (W) 8.7 55.9 mph 215° @ 0645 PM 3.6 or 0.14 0.00 28.3 191.6 38
Guthrie 10WSW 11:59 PM 79 36 57 /28 68 / 47 4.6  (NE) 2.5 18.6 mph 147° @ 0224 PM 2 or 0.08 0.00 26.4 194.1 0
Hackberry 2SSE 11:59 PM 79 36 57 /28 68 / 47 5.3  (E) 3.7 18.3 mph 188° @ 0255 PM 2 or 0.08 0.00 28.2 210.9 0
Happy 1E 11:59 PM 79 36 57 /28 68 / 47 7.6  (E) 5.2 28.4 mph 201° @ 0500 PM 2.5 or 0.1 0.00 26.7 202.2 0
Hart 3N 11:55 PM 79 36 57 /28 68 / 47 6.8  (E) 4.3 20.8 mph 143° @ 0915 PM 2.3 or 0.09 0.00 27.2 203.5 0
Haskell 1NW 11:55 PM 79 36 57 /28 68 / 47 6.2  (E) 4 23.6 mph 115° @ 1205 PM 2.5 or 0.1 0.00 25.5 185.9 0
Hefner 1SW 11:59 PM 79 36 57 /28 68 / 47 6.1  (SE) 4 19.7 mph 120° @ 0156 PM 2.5 or 0.1 0.00 25.5 188.2 0
Hereford 2NW 11:55 PM 79 36 57 /28 68 / 47 6.6  (E) 4.7 29.1 mph 235° @ 0425 PM 2.3 or 0.09 0.00 25.4 193.1 0
Hobbs NM 5NW 11:59 PM 79 36 57 /28 68 / 47 7.6  (NW) 5.4 24.2 mph 227° @ 0509 PM 2.8 or 0.11 0.00 27.3 192.9 0
Jayton 1SSE 11:55 PM 79 36 57 /28 68 / 47 7.1  (E) 4.5 21.9 mph 73° @ 1105 AM 2.8 or 0.11 0.00 26.1 189.9 0
Junction 1SSW 11:59 PM 79 36 57 /28 68 / 47 5.6  (SW) 4.1 29.3 mph 193° @ 1046 AM 3.3 or 0.13 0.00 22.4 149.4 0
Kent 9E 11:59 PM 79 36 57 /28 68 / 47 13.3  (W) 9.6 40 mph 231° @ 0427 PM 5.1 or 0.2 0.00 27 180.5 70
Knox City 3NW 11:59 PM 79 36 57 /28 68 / 47 4.8  (NE) 2.8 23 mph 116° @ 1140 PM 2.3 or 0.09 0.00 27.1 199.7 0
Lake Alan Henry 1NW 11:59 PM 79 36 57 /28 68 / 47 5.6  (E) 3.1 15.6 mph 149° @ 1052 PM 2.5 or 0.1 0.00 25.5 184.6 0
Lake McClellan 2NW 11:59 PM 79 36 57 /28 68 / 47 11.1  (W) 8.7 25.6 mph 207° @ 0302 PM 3.3 or 0.13 0.00 26.3 204 0
Lamesa 2SE 11:55 PM 79 36 57 /28 68 / 47 6.8  (SE) 3.5 26.3 mph 276° @ 0605 PM 2.8 or 0.11 0.00 27.3 193.7 0
Lesley 2S 11:59 PM 79 36 57 /28 68 / 47 7.6  (S) 5.4 20.5 mph 200° @ 0334 PM 2.8 or 0.11 0.00 26.7 204.5 0
Levelland 4S 11:59 PM 79 36 57 /28 68 / 47 9.1  (SE) 6.7 41.7 mph 181° @ 1150 PM 3.6 or 0.14 0.00 26.4 191.8 5
Lomax 1SSE 11:59 PM 79 36 57 /28 68 / 47 7.5  (E) 5.1 23.8 mph 295° @ 0407 PM 3.3 or 0.13 0.00 27.8 194.2 0
Lubbock 3WNW TTU 11:55 PM 79 36 57 /28 68 / 47 5.6  (SE) 3 17.5 mph 97° @ 0105 AM 2.3 or 0.09 0.00 26.2 191.7 0
McAdoo 3NNW 11:59 PM 79 36 57 /28 68 / 47 7.6  (E) 4.5 17.5 mph 132° @ 1202 PM 2.8 or 0.11 0.00 26.1 191.9 0
McCamey 1SSW 11:59 PM 79 36 57 /28 68 / 47 4.8  (N) 3.9 17.8 mph 273° @ 0500 PM 2.3 or 0.09 0.00 27.4 185.7 0
McLean 1E 11:55 PM 79 36 57 /28 68 / 47 9.7  (NW) 7 30 mph 221° @ 0130 PM 2.8 or 0.11 0.00 28 217.8 0
Memphis 1NE 11:59 PM 79 36 57 /28 68 / 47 5.9  (NW) 3.8 23 mph 204° @ 0149 PM 2.3 or 0.09 0.00 27.1 208.3 0
Menard 2NW 11:59 PM 79 36 57 /28 68 / 47 6.5  (N) 5 30.8 mph 233° @ 0446 PM 3.6 or 0.14 0.00 23.6 159.6 0
Mertzon 3NNE 11:59 PM 79 36 57 /28 68 / 47 6.1  (NW) 3.7 22.9 mph 233° @ 0101 PM 3.3 or 0.13 0.00 26 177.4 0
Morton 1ENE 11:55 PM 79 36 57 /28 68 / 47 7.9  (S) 5 32.1 mph 243° @ 0545 PM 3 or 0.12 0.00 26.1 190.9 0
Muleshoe 2SSW 11:55 PM 79 36 57 /28 68 / 47 9.3  (E) 6.7 39.3 mph 246° @ 1055 PM 3.3 or 0.13 0.00 27.7 205.7 10
New Home 11:59 PM 79 36 57 /28 68 / 47 7.5  (SE) 4.5 22.6 mph 262° @ 0624 PM 3 or 0.12 0.00 26.8 194.1 0
Northfield 1S 11:55 PM 79 36 57 /28 68 / 47 7.2  (E) 4.4 22.1 mph 199° @ 0105 PM 2.8 or 0.11 0.00 25.8 194.5 0
O'Donnell 1N 11:55 PM 79 36 57 /28 68 / 47 7.3  (N) 3.9 28 mph 246° @ 0650 PM 3 or 0.12 0.00 4.7 168.9 0
Odell 4ENE 11:59 PM 79 36 57 /28 68 / 47 6.8  (NW) 4.3 19.7 mph 196° @ 0432 PM 2.5 or 0.1 0.00 25.9 196.9 0
Olton 6S 11:55 PM 79 36 57 /28 68 / 47 7.5  (NE) 5.5 20.1 mph 130° @ 0930 PM 2.8 or 0.11 0.00 25.6 190.1 0
Paducah 10SW 11:59 PM 79 36 57 /28 68 / 47 5.8  (NE) 3.1 18.6 mph 132° @ 1231 PM 2.3 or 0.09 0.00 27.5 204.8 0
Palo Duro 4E (JA Ranch) 11:59 PM 79 36 57 /28 68 / 47 6.4  (SW) 4.2 19.9 mph 246° @ 0210 PM 2.3 or 0.09 0.00 26.1 199.9 0
Palo Duro Canyon SP Floor 11:59 PM 79 36 57 /28 68 / 47 4.6  (N) 2.1 19 mph 303° @ 0458 PM 1.8 or 0.07 0.00 25 191.7 0
Palo Duro Canyon State Park Rim 11:59 PM 79 36 57 /28 68 / 47 6.6  (N) 3.5 21.8 mph 215° @ 0626 PM 2.3 or 0.09 0.00 27.1 207.6 0
Palo Duro Reservoir 1NW 11:59 PM 79 36 57 /28 68 / 47 13  (W) 9.6 32.6 mph 241° @ 0108 PM 3.8 or 0.15 0.00 26.1 211.5 2
Pampa 2E 11:55 PM 79 36 57 /28 68 / 47 9.5  (NW) 6.6 24.6 mph 224° @ 0100 PM 2.8 or 0.11 0.00 25.9 203.1 0
Panhandle 1SSW 11:59 PM 79 36 57 /28 68 / 47 9.2  (N) 7 26.8 mph 208° @ 1258 PM 2.8 or 0.11 0.00 27.1 209.8 0
Plains 3N 11:55 PM 79 36 57 /28 68 / 47 10.1  (W) 7.5 33.5 mph 276° @ 0325 PM 3.6 or 0.14 0.00 28.5 204.6 30
Plainview 1S 11:59 PM 79 36 57 /28 68 / 47 6.6  (E) 4.7 32.9 mph 203° @ 1122 PM 2.3 or 0.09 0.00 27.9 208 0
Post 1NE 11:59 PM 79 36 57 /28 68 / 47 5.1  (E) 3 20.8 mph 64° @ 1100 AM 2 or 0.08 0.00 26.7 193.6 0
Ralls 1SE 11:59 PM 79 36 57 /28 68 / 47 6.8  (E) 4 17.5 mph 279° @ 0514 PM 2.5 or 0.1 0.00 26 190.8 0
Reese Center 11:59 PM 79 36 57 /28 68 / 47 8.2  (SE) 5.6 25.2 mph 250° @ 0603 PM 3 or 0.12 0.00 26.8 195.6 0
Roaring Springs 3N 11:59 PM 79 36 57 /28 68 / 47 6  (NE) 3.9 17.5 mph 248° @ 0511 PM 2.3 or 0.09 0.00 27 200.8 0
Romero 11SSW 11:59 PM 79 36 57 /28 68 / 47 7.7  (NE) 5.2 32.7 mph 236° @ 0941 PM 2.5 or 0.1 0.00 26.2 204.3 0
Rotan 5W 11:59 PM 79 36 57 /28 68 / 47 6.2  (NE) 4.2 18.6 mph 313° @ 0213 PM 2.5 or 0.1 0.00 32.9 236.5 0
San Angelo 7NW 11:55 PM 79 36 57 /28 68 / 47 5.4  (SE) 4 25.1 mph 265° @ 0320 PM 2.8 or 0.11 0.00 26 179.1 0
Seagraves 1SW 11:59 PM 79 36 57 /28 68 / 47 6.8  (NW) 4.3 29.6 mph 219° @ 0435 PM 2.8 or 0.11 0.00 26.9 192.2 2
Segovia 7SSW 11:59 PM 79 36 57 /28 68 / 47 10.2  (E) 6.2 33.3 mph 204° @ 1025 AM 4.6 or 0.18 0.00 25.5 168.8 0
Seminole 2NNE 11:55 PM 79 36 57 /28 68 / 47 7.7  (W) 4.9 24.3 mph 247° @ 0330 PM 3 or 0.12 0.00 27.1 192.3 0
Seymour 3NW 11:55 PM 79 36 57 /28 68 / 47 4.5  (SW) 3.2 21.8 mph 122° @ 0145 PM 2 or 0.08 0.00 22.4 166.5 0
Sierra Blanca 1SSE 11:59 PM 79 36 57 /28 68 / 47 11.2  (W) 8.8 34 mph 282° @ 0420 PM 4.1 or 0.16 0.00 24.4 163 37
Silverton 7ESE 11:55 PM 79 36 57 /28 68 / 47 7.3  (SE) 5 32.7 mph 187° @ 1155 PM 2.5 or 0.1 0.00 23.5 176.9 0
Slaton 2NE 11:59 PM 79 36 57 /28 68 / 47 6.8  (E) 4.5 20.8 mph 126° @ 1024 PM 2.8 or 0.11 0.00 27.4 199.7 0
Smyer 11:59 PM 79 36 57 /28 68 / 47 7.4  (SE) 5.5 27.4 mph 278° @ 0539 PM 2.8 or 0.11 0.00 27.2 198.6 0
Snyder 3E 11:55 PM 79 36 57 /28 68 / 47 8.1  (E) 2.9 18.2 mph 292° @ 0100 PM 3.6 or 0.14 0.00 24.4 174.3 0
Snyder 3SSW 11:59 PM 79 36 57 /28 68 / 47 5.4  (E) 3.4 17.1 mph 286° @ 0156 PM 2.3 or 0.09 0.00 26.6 189.6 0
South Plains 3ENE 11:59 PM 79 36 57 /28 68 / 47 5.9  (E) 3.8 24.4 mph 161° @ 1029 PM 2.3 or 0.09 0.00 26.6 198.9 0
Spur 1W 11:55 PM 79 36 57 /28 68 / 47 4.7  (N) 2.5 15.2 mph 134° @ 1140 AM 2 or 0.08 0.00 26.7 195.7 0
St. Lawrence 5SW 11:59 PM 79 36 57 /28 68 / 47 9.1  (NE) 6.2 25.2 mph 255° @ 0624 PM 3.8 or 0.15 0.00 29.1 199.9 0
Stamford 5ESE 11:59 PM 79 36 57 /28 68 / 47 6.6  (E) 4.7 21.3 mph 203° @ 1247 PM 3 or 0.12 0.00 26.6 192.2 0
Sterling City 4WSW 11:59 PM 79 36 57 /28 68 / 47 5.8  (SE) 3.5 22.7 mph 289° @ 0427 PM 2.8 or 0.11 0.00 21.3 147.4 0
Stinnett 1NNW 11:59 PM 79 36 57 /28 68 / 47 11.1  (N) 7.5 28.3 mph 211° @ 1226 PM 3.3 or 0.13 0.00 27 213.9 0
Stratford 4WNW 11:59 PM 79 36 57 /28 68 / 47 11.7  (W) 8.1 33 mph 242° @ 1140 AM 3.3 or 0.13 0.00 24.6 197.9 0
Sundown 8WSW 11:55 PM 79 36 57 /28 68 / 47 8.6  (SE) 5.6 34.8 mph 273° @ 0420 PM 3.6 or 0.14 0.00 24.3 175.4 0
Sweetwater 11SW 11:59 PM 79 36 57 /28 68 / 47 9.7  (E) 6.8 23.2 mph 254° @ 1156 AM 3.8 or 0.15 0.00 27.5 193.5 0
Tahoka 3NNE 11:59 PM 79 36 57 /28 68 / 47 7.8  (SE) 4.7 22.3 mph 90° @ 0338 AM 3 or 0.12 0.00 26.4 190.8 0
Tarzan 2WNW 11:59 PM 79 36 57 /28 68 / 47 8.9  (E) 5.5 24.5 mph 247° @ 0607 PM 3.8 or 0.15 0.00 27.3 191.4 0
Tatum NM 2SW 11:55 PM 79 36 57 /28 68 / 47 11.9  (W) 7.7 32.7 mph 276° @ 0200 PM 4.1 or 0.16 0.00 27.4 196.4 5
Throckmorton 1SW 11:59 PM 79 36 57 /28 68 / 47 5.5  (NW) 2.9 19.6 mph 131° @ 1232 PM 2.5 or 0.1 0.00 27.3 199.3 0
Truscott 2SE 11:59 PM 79 36 57 /28 68 / 47 5.4  (E) 3.4 20.5 mph 124° @ 0140 PM 2.3 or 0.09 0.00 26.2 194.8 0
Tulia 2ENE 11:55 PM 79 36 57 /28 68 / 47 7.7  (E) 5.6 44 mph 190° @ 1050 PM 2.8 or 0.11 0.00 22.7 171.2 5
Turkey 2WSW 11:55 PM 79 36 57 /28 68 / 47 8.1  (SE) 6 22.1 mph 160° @ 0135 PM 3 or 0.12 0.00 22.8 172 0
Umbarger 3NNE 11:59 PM 79 36 57 /28 68 / 47 8.6  (E) 5.9 24.9 mph 233° @ 0441 PM 3 or 0.12 0.00 26 198.9 0
Van Horn 3ENE 11:59 PM 79 36 57 /28 68 / 47 11.9  (SW) 8 33.7 mph 262° @ 0343 PM 4.6 or 0.18 0.00 27.1 181 17
Vega 4E 11:59 PM 79 36 57 /28 68 / 47 8.1  (E) 5.5 27.4 mph 215° @ 0408 PM 2.5 or 0.1 0.00 28.6 220.3 0
Vigo Park 11:59 PM 79 36 57 /28 68 / 47 8  (E) 5 30.2 mph 181° @ 1138 PM 2.8 or 0.11 0.00 23.9 181 0
Wall 2E 11:59 PM 79 36 57 /28 68 / 47 7.9  (S) 5.7 28.3 mph 200° @ 1212 PM 4.1 or 0.16 0.00 26.9 184.8 1
Weinert 2NNE 11:59 PM 79 36 57 /28 68 / 47 5.4  (E) 3.5 20.7 mph 122° @ 1135 AM 2.5 or 0.1 0.00 24.2 177.3 0
Welch 11:59 PM 79 36 57 /28 68 / 47 6.6  (N) 4.3 25.5 mph 269° @ 0513 PM 3 or 0.12 0.00 26.6 189.8 0
Wellington 6SE 11:59 PM 79 36 57 /28 68 / 47 9.9  (N) 6.8 24.1 mph 224° @ 0357 PM 3.3 or 0.13 0.00 28.2 217.1 0
White River Lake 6NW 11:59 PM 79 36 57 /28 68 / 47 6.3  (NE) 3.6 16.4 mph 221° @ 0529 PM 2.3 or 0.09 0.00 28.3 207.1 0
Wolfforth 6SSW 11:59 PM 79 36 57 /28 68 / 47 7.7  (SE) 5.2 35.1 mph 263° @ 0540 PM 3 or 0.12 0.00 27.4 198.9 0

WestTexas Mesonet Home    Site Map/Menu  National Weather Service Lubbock   Soil Data   Latest Observation Page   Previous  Date   Next Last